createdAt,value
2023-01-25T00:02:10.713Z,79.82
2023-01-25T00:04:37.280Z,79.64
2023-01-25T00:07:03.800Z,79.98
2023-01-25T00:09:30.221Z,80.33
2023-01-25T00:11:58.115Z,80.94
2023-01-25T00:14:24.997Z,81.48
2023-01-25T00:16:51.694Z,82.25
2023-01-25T00:19:18.530Z,81.54
2023-01-25T00:21:50.043Z,81.49
2023-01-25T00:24:16.519Z,80.73
2023-01-25T00:26:46.457Z,81.17
2023-01-25T00:29:14.123Z,81.20
2023-01-25T00:31:40.527Z,80.74
2023-01-25T00:34:27.048Z,81.18
2023-01-25T00:37:13.388Z,81.14
2023-01-25T00:39:40.417Z,80.61
2023-01-25T00:42:14.222Z,80.94
2023-01-25T00:44:40.797Z,81.04
2023-01-25T00:47:07.466Z,81.32
2023-01-25T00:49:33.997Z,81.14
2023-01-25T00:52:00.793Z,81.06
2023-01-25T00:54:27.298Z,80.93
2023-01-25T00:56:56.204Z,81.22
2023-01-25T01:00:36.330Z,80.81
2023-01-25T01:03:04.636Z,81.45
2023-01-25T01:05:31.395Z,82.79
2023-01-25T01:08:01.210Z,82.76
2023-01-25T01:10:28.274Z,82.20
2023-01-25T01:12:55.398Z,82.22
2023-01-25T01:15:25.151Z,81.69
2023-01-25T01:17:51.927Z,81.51
2023-01-25T01:20:21.664Z,81.57
2023-01-25T01:22:53.893Z,81.21
2023-01-25T01:25:24.357Z,81.39
2023-01-25T01:27:50.819Z,80.59
2023-01-25T01:30:17.491Z,80.97
2023-01-25T01:32:44.501Z,80.73
2023-01-25T01:35:11.629Z,81.42
2023-01-25T01:37:42.811Z,81.93
2023-01-25T01:40:14.909Z,81.61
2023-01-25T01:43:05.558Z,81.43
2023-01-25T01:46:00.947Z,81.72
2023-01-25T01:48:43.554Z,81.96
2023-01-25T01:51:31.660Z,82.05
2023-01-25T01:54:03.081Z,82.28
2023-01-25T01:57:01.468Z,82.28
2023-01-25T01:59:37.303Z,82.42
2023-01-25T02:02:05.752Z,82.99
2023-01-25T02:04:32.761Z,83.23
2023-01-25T02:07:04.758Z,83.13
2023-01-25T02:09:35.133Z,83.66
2023-01-25T02:12:03.014Z,83.48
2023-01-25T02:14:29.510Z,83.62
2023-01-25T02:16:56.453Z,83.65
2023-01-25T02:19:38.174Z,83.46
2023-01-25T02:22:10.217Z,82.98
2023-01-25T02:24:42.413Z,83.07
2023-01-25T02:27:09.040Z,83.74
2023-01-25T02:29:36.317Z,83.75
2023-01-25T02:32:05.097Z,83.49
2023-01-25T02:34:31.768Z,83.13
2023-01-25T02:36:59.205Z,82.72
2023-01-25T02:39:28.284Z,83.07
2023-01-25T02:41:55.022Z,83.18
2023-01-25T02:44:25.197Z,83.68
2023-01-25T02:46:52.168Z,84.17
2023-01-25T02:49:19.018Z,84.17
2023-01-25T02:51:48.932Z,84.02
2023-01-25T02:54:18.546Z,84.26
2023-01-25T02:56:45.118Z,84.17
2023-01-25T02:59:13.352Z,84.17
2023-01-25T03:01:41.815Z,84.05
2023-01-25T03:04:08.992Z,84.30
2023-01-25T03:06:36.646Z,84.56
2023-01-25T03:09:04.988Z,84.79
2023-01-25T03:11:31.624Z,84.33
2023-01-25T03:13:58.093Z,83.72
2023-01-25T03:16:25.129Z,83.83
2023-01-25T03:18:55.390Z,83.82
2023-01-25T03:21:22.771Z,83.99
2023-01-25T03:23:56.450Z,83.49
2023-01-25T03:26:25.465Z,84.01
2023-01-25T03:28:51.896Z,84.38
2023-01-25T03:31:18.876Z,84.66
2023-01-25T03:33:45.914Z,84.25
2023-01-25T03:36:12.405Z,84.19
2023-01-25T03:38:38.836Z,84.20
2023-01-25T03:41:05.453Z,83.76
2023-01-25T03:43:31.980Z,83.96
2023-01-25T03:46:00.895Z,83.91
2023-01-25T03:48:28.667Z,84.76
2023-01-25T03:50:58.667Z,84.91
2023-01-25T03:53:30.176Z,86.00
2023-01-25T03:56:08.214Z,86.16
2023-01-25T03:58:36.178Z,85.51
2023-01-25T04:01:04.041Z,85.23
2023-01-25T04:03:31.866Z,85.56
2023-01-25T04:05:59.194Z,85.71
2023-01-25T04:08:26.363Z,86.52
2023-01-25T04:10:55.298Z,86.76
2023-01-25T04:13:23.299Z,86.72
2023-01-25T04:15:50.019Z,86.69
2023-01-25T04:18:17.444Z,86.89
2023-01-25T04:20:44.642Z,87.59
2023-01-25T04:23:11.722Z,87.73
2023-01-25T04:25:38.834Z,87.53
2023-01-25T04:28:05.464Z,87.89
2023-01-25T04:30:31.994Z,88.26
2023-01-25T04:33:03.167Z,87.96
2023-01-25T04:35:29.566Z,88.04
2023-01-25T04:37:57.080Z,87.84
2023-01-25T04:40:29.637Z,87.94
2023-01-25T04:42:59.745Z,88.21
2023-01-25T04:45:26.669Z,87.90
2023-01-25T04:48:05.391Z,87.67
2023-01-25T04:50:31.974Z,88.22
2023-01-25T04:52:58.438Z,88.52
2023-01-25T04:55:24.916Z,88.78
2023-01-25T04:57:52.022Z,88.35
2023-01-25T05:00:21.692Z,87.88
2023-01-25T05:02:48.259Z,87.28
2023-01-25T05:05:14.983Z,86.88
2023-01-25T05:07:41.588Z,86.37
2023-01-25T05:10:08.965Z,85.98
2023-01-25T05:12:35.723Z,85.97
2023-01-25T05:15:02.467Z,85.93
2023-01-25T05:17:28.988Z,85.93
2023-01-25T05:19:55.532Z,85.45
2023-01-25T05:22:22.206Z,84.99
2023-01-25T05:24:49.210Z,85.07
2023-01-25T05:27:19.923Z,85.39
2023-01-25T05:29:47.166Z,84.89
2023-01-25T05:32:16.762Z,84.67
2023-01-25T05:34:44.165Z,85.60
2023-01-25T05:37:15.709Z,86.14
2023-01-25T05:39:42.444Z,86.48
2023-01-25T05:42:15.276Z,86.13
2023-01-25T05:44:41.848Z,86.18
2023-01-25T05:47:13.114Z,86.17
2023-01-25T05:49:39.575Z,85.84
2023-01-25T05:52:06.073Z,85.98
2023-01-25T05:54:32.464Z,86.47
2023-01-25T05:56:58.877Z,86.35
2023-01-25T05:59:25.539Z,86.42
2023-01-25T06:01:52.797Z,86.42
2023-01-25T06:04:19.255Z,86.57
2023-01-25T06:06:45.850Z,86.38
2023-01-25T06:09:13.513Z,86.35
2023-01-25T06:11:42.851Z,86.46
2023-01-25T06:14:09.301Z,86.59
2023-01-25T06:16:35.653Z,86.14
2023-01-25T06:19:02.086Z,86.28
2023-01-25T06:21:28.505Z,86.53
2023-01-25T06:23:55.077Z,86.64
2023-01-25T06:26:21.532Z,86.74
2023-01-25T06:28:47.949Z,86.39
2023-01-25T06:31:16.803Z,86.00
2023-01-25T06:33:44.364Z,85.80
2023-01-25T06:36:13.285Z,85.82
2023-01-25T06:38:40.447Z,86.15
2023-01-25T06:41:11.207Z,86.14
2023-01-25T06:43:39.345Z,85.86
2023-01-25T06:46:08.306Z,85.79
2023-01-25T06:48:35.643Z,85.63
2023-01-25T06:51:05.150Z,85.51
2023-01-25T06:53:33.636Z,85.49
2023-01-25T06:56:05.816Z,85.65
2023-01-25T06:58:33.010Z,86.03
2023-01-25T07:01:15.199Z,85.93
2023-01-25T07:03:42.176Z,85.78
2023-01-25T07:06:10.902Z,85.84
2023-01-25T07:08:38.000Z,85.66
2023-01-25T07:11:07.220Z,85.76
2023-01-25T07:13:34.446Z,85.50
2023-01-25T07:16:06.912Z,85.65
2023-01-25T07:18:34.092Z,85.82
2023-01-25T07:21:06.354Z,85.83
2023-01-25T07:23:34.446Z,85.89
2023-01-25T07:26:01.502Z,86.07
2023-01-25T07:28:28.846Z,86.07
2023-01-25T07:32:36.363Z,86.17
2023-01-25T07:35:02.934Z,86.08
2023-01-25T07:37:29.465Z,86.18
2023-01-25T07:39:58.182Z,85.90
2023-01-25T07:42:25.254Z,85.77
2023-01-25T07:44:51.874Z,85.78
2023-01-25T07:47:18.328Z,85.40
2023-01-25T07:49:44.704Z,85.51
2023-01-25T07:52:11.167Z,85.95
2023-01-25T07:54:37.576Z,85.73
2023-01-25T07:57:04.023Z,86.07
2023-01-25T07:59:32.100Z,86.14
2023-01-25T08:01:58.484Z,86.30
2023-01-25T08:04:25.560Z,86.63
2023-01-25T08:06:52.084Z,86.14
2023-01-25T08:09:20.084Z,86.17
2023-01-25T08:11:47.180Z,86.01
2023-01-25T08:14:13.765Z,86.25
2023-01-25T08:16:40.174Z,86.19
2023-01-25T08:19:07.203Z,86.16
2023-01-25T08:21:35.967Z,86.26
2023-01-25T08:24:05.589Z,86.03
2023-01-25T08:26:33.083Z,85.82
2023-01-25T08:29:00.138Z,86.04
2023-01-25T08:31:33.699Z,85.99
2023-01-25T08:34:01.122Z,86.16
2023-01-25T08:36:30.739Z,86.50
2023-01-25T08:39:05.502Z,86.25
2023-01-25T08:41:33.707Z,86.52
2023-01-25T08:44:00.323Z,86.41
2023-01-25T08:46:30.561Z,86.60
2023-01-25T08:49:00.337Z,86.39
2023-01-25T08:51:28.017Z,85.87
2023-01-25T08:53:54.876Z,85.79
2023-01-25T08:56:21.354Z,85.57
2023-01-25T08:58:50.108Z,85.67
2023-01-25T09:01:19.006Z,85.77
2023-01-25T09:03:48.774Z,85.82
2023-01-25T09:06:15.795Z,86.32
2023-01-25T09:08:42.864Z,86.43
2023-01-25T09:11:12.925Z,86.10
2023-01-25T09:13:43.436Z,86.46
2023-01-25T09:16:12.701Z,86.42
2023-01-25T09:18:41.252Z,86.36
2023-01-25T09:21:09.787Z,86.54
2023-01-25T09:23:50.312Z,86.14
2023-01-25T09:26:18.863Z,85.68
2023-01-25T09:28:51.420Z,86.07
2023-01-25T09:31:22.005Z,86.32
2023-01-25T09:33:51.383Z,85.77
2023-01-25T09:36:18.088Z,86.13
2023-01-25T09:38:45.857Z,86.12
2023-01-25T09:41:34.335Z,86.03
2023-01-25T09:44:17.190Z,86.13
2023-01-25T09:46:56.480Z,86.55
2023-01-25T09:49:50.609Z,86.59
2023-01-25T09:52:29.462Z,86.70
2023-01-25T09:54:56.625Z,86.81
2023-01-25T09:57:35.059Z,86.65
2023-01-25T10:00:08.700Z,86.74
2023-01-25T10:03:01.580Z,86.46
2023-01-25T10:05:36.869Z,86.48
2023-01-25T10:08:08.375Z,86.12
2023-01-25T10:10:39.282Z,86.21
2023-01-25T10:13:15.124Z,86.72
2023-01-25T10:15:46.865Z,86.33
2023-01-25T10:18:30.819Z,86.16
2023-01-25T10:21:07.715Z,85.73
2023-01-25T10:23:37.168Z,86.42
2023-01-25T10:26:28.174Z,86.97
2023-01-25T10:29:07.134Z,87.09
2023-01-25T10:31:49.105Z,87.24
2023-01-25T10:34:47.026Z,87.01
2023-01-25T10:37:27.070Z,86.95
2023-01-25T10:40:01.999Z,86.97
2023-01-25T10:42:33.255Z,87.03
2023-01-25T10:44:59.879Z,86.82
2023-01-25T10:47:28.661Z,86.86
2023-01-25T10:49:57.471Z,87.05
2023-01-25T10:52:25.392Z,87.08
2023-01-25T10:55:17.695Z,86.82
2023-01-25T10:57:48.030Z,86.15
2023-01-25T11:00:30.509Z,85.56
2023-01-25T11:02:57.447Z,85.41
2023-01-25T11:05:38.870Z,85.85
2023-01-25T11:08:32.420Z,86.38
2023-01-25T11:10:59.950Z,86.06
2023-01-25T11:13:33.356Z,85.59
2023-01-25T11:15:59.894Z,85.66
2023-01-25T11:18:29.504Z,85.56
2023-01-25T11:21:06.903Z,86.09
2023-01-25T11:23:34.518Z,86.05
2023-01-25T11:26:19.994Z,86.40
2023-01-25T11:28:50.244Z,86.25
2023-01-25T11:31:22.816Z,86.06
2023-01-25T11:33:49.453Z,86.37
2023-01-25T11:36:39.060Z,86.45
2023-01-25T11:39:18.993Z,86.84
2023-01-25T11:42:04.436Z,86.50
2023-01-25T11:44:51.049Z,85.98
2023-01-25T11:47:40.990Z,85.89
2023-01-25T11:50:23.774Z,85.15
2023-01-25T11:53:27.738Z,85.39
2023-01-25T11:56:12.839Z,86.32
2023-01-25T11:59:09.655Z,86.64
2023-01-25T12:01:58.041Z,87.02
2023-01-25T12:04:33.574Z,86.89
2023-01-25T12:07:03.913Z,86.66
2023-01-25T12:09:43.326Z,86.53
2023-01-25T12:12:17.270Z,86.25
2023-01-25T12:15:20.549Z,86.49
2023-01-25T12:17:57.563Z,86.98
2023-01-25T12:21:08.629Z,86.75
2023-01-25T12:24:05.840Z,86.97
2023-01-25T12:26:58.173Z,86.40
2023-01-25T12:29:32.378Z,85.95
2023-01-25T12:32:06.808Z,85.56
2023-01-25T12:34:39.694Z,85.60
2023-01-25T12:37:32.279Z,86.34
2023-01-25T12:40:03.289Z,86.13
2023-01-25T12:42:36.742Z,85.82
2023-01-25T12:45:15.260Z,86.53
2023-01-25T12:47:46.660Z,86.02
2023-01-25T12:50:18.622Z,86.01
2023-01-25T12:53:01.611Z,85.98
2023-01-25T12:55:28.453Z,85.75
2023-01-25T12:58:37.370Z,86.84
2023-01-25T13:01:16.232Z,87.47
2023-01-25T13:04:18.248Z,87.85
2023-01-25T13:07:07.409Z,87.22
2023-01-25T13:09:59.503Z,86.69
2023-01-25T13:12:26.654Z,86.84
2023-01-25T13:14:53.418Z,86.93
2023-01-25T13:17:35.488Z,86.57
2023-01-25T13:20:23.136Z,87.05
2023-01-25T13:22:51.874Z,87.06
2023-01-25T13:25:21.671Z,86.72
2023-01-25T13:27:48.105Z,86.43
2023-01-25T13:30:23.300Z,86.28
2023-01-25T13:32:50.839Z,86.33
2023-01-25T13:35:26.179Z,85.81
2023-01-25T13:38:02.075Z,86.25
2023-01-25T13:40:34.637Z,86.25
2023-01-25T13:43:19.314Z,86.26
2023-01-25T13:45:50.469Z,86.15
2023-01-25T13:48:22.273Z,86.04
2023-01-25T13:50:55.032Z,85.75
2023-01-25T13:53:24.260Z,85.87
2023-01-25T13:55:56.584Z,85.55
2023-01-25T13:58:24.345Z,85.86
2023-01-25T14:01:11.499Z,85.96
2023-01-25T14:03:44.429Z,85.67
2023-01-25T14:06:26.867Z,85.51
2023-01-25T14:08:56.199Z,86.19
2023-01-25T14:11:26.056Z,85.46
2023-01-25T14:14:01.627Z,85.67
2023-01-25T14:16:30.390Z,85.90
2023-01-25T14:19:18.438Z,85.85
2023-01-25T14:21:44.949Z,86.03
2023-01-25T14:24:11.977Z,86.24
2023-01-25T14:26:41.840Z,86.32
2023-01-25T14:29:31.712Z,86.30
2023-01-25T14:31:59.666Z,86.55
2023-01-25T14:34:26.728Z,86.71
2023-01-25T14:37:14.268Z,86.91
2023-01-25T14:39:40.740Z,86.75
2023-01-25T14:42:07.562Z,85.75
2023-01-25T14:44:34.140Z,85.24
2023-01-25T14:47:21.892Z,84.56
2023-01-25T14:49:48.650Z,85.34
2023-01-25T14:52:19.399Z,85.33
2023-01-25T14:54:57.350Z,85.59
2023-01-25T14:57:36.160Z,85.74
2023-01-25T15:00:20.305Z,85.44
2023-01-25T15:02:56.602Z,86.13
2023-01-25T15:08:38.483Z,86.95
2023-01-25T15:11:23.521Z,87.14
2023-01-25T15:14:01.392Z,87.26
2023-01-25T15:16:34.560Z,87.05
2023-01-25T15:19:00.972Z,87.55
2023-01-25T15:21:32.361Z,87.95
2023-01-25T15:24:06.387Z,87.94
2023-01-25T15:26:34.687Z,88.09
2023-01-25T15:29:08.891Z,87.66
2023-01-25T15:31:37.953Z,87.40
2023-01-25T15:34:04.917Z,87.51
2023-01-25T15:36:32.761Z,87.36
2023-01-25T15:38:59.416Z,86.85
2023-01-25T15:41:25.826Z,86.62
2023-01-25T15:43:52.410Z,86.53
2023-01-25T15:46:24.891Z,86.38
2023-01-25T15:48:52.041Z,86.17
2023-01-25T15:51:19.248Z,85.98
2023-01-25T15:53:46.817Z,86.27
2023-01-25T15:56:17.915Z,86.44
2023-01-25T15:58:47.714Z,86.79
2023-01-25T16:01:26.945Z,86.51
2023-01-25T16:03:55.076Z,86.27
2023-01-25T16:06:41.921Z,86.14
2023-01-25T16:09:15.895Z,86.09
2023-01-25T16:11:42.598Z,85.96
2023-01-25T16:14:09.095Z,85.82
2023-01-25T16:16:40.962Z,86.00
2023-01-25T16:19:07.528Z,85.15
2023-01-25T16:21:33.966Z,85.29
2023-01-25T16:24:00.414Z,85.98
2023-01-25T16:26:28.909Z,85.94
2023-01-25T16:28:56.011Z,86.07
2023-01-25T16:31:32.229Z,86.08
2023-01-25T16:34:00.372Z,86.03
2023-01-25T16:36:27.189Z,85.61
2023-01-25T16:38:53.662Z,86.11
2023-01-25T16:41:20.222Z,85.78
2023-01-25T16:43:48.491Z,85.75
2023-01-25T16:46:20.995Z,86.07
2023-01-25T16:48:49.392Z,86.06
2023-01-25T16:51:18.692Z,86.05
2023-01-25T16:53:46.588Z,85.87
2023-01-25T16:56:21.423Z,85.91
2023-01-25T16:58:49.137Z,86.13
2023-01-25T17:01:17.934Z,86.68
2023-01-25T17:03:45.224Z,86.97
2023-01-25T17:06:32.068Z,86.54
2023-01-25T17:09:09.368Z,87.03
2023-01-25T17:11:39.995Z,87.10
2023-01-25T17:14:07.109Z,86.91
2023-01-25T17:16:34.661Z,86.60
2023-01-25T17:19:06.527Z,86.56
2023-01-25T17:21:33.970Z,86.94
2023-01-25T17:24:02.265Z,88.13
2023-01-25T17:26:30.716Z,88.60
2023-01-25T17:29:00.280Z,88.94
2023-01-25T17:31:29.560Z,88.85
2023-01-25T17:33:56.447Z,88.65
2023-01-25T17:36:23.074Z,88.36
2023-01-25T17:38:49.482Z,87.92
2023-01-25T17:41:17.274Z,87.46
2023-01-25T17:43:44.080Z,88.32
2023-01-25T17:46:36.170Z,88.31
2023-01-25T17:49:08.265Z,88.03
2023-01-25T17:51:36.173Z,88.26
2023-01-25T17:54:04.111Z,88.23
2023-01-25T17:56:30.817Z,87.50
2023-01-25T17:58:58.705Z,87.32
2023-01-25T18:01:29.262Z,87.39
2023-01-25T18:03:56.692Z,87.63
2023-01-25T18:06:29.015Z,87.57
2023-01-25T18:08:59.859Z,87.85
2023-01-25T18:11:30.784Z,87.71
2023-01-25T18:13:59.624Z,87.79
2023-01-25T18:16:28.648Z,88.61
2023-01-25T18:18:56.728Z,88.23
2023-01-25T18:21:26.195Z,88.29
2023-01-25T18:23:56.238Z,88.07
2023-01-25T18:26:31.817Z,88.41
2023-01-25T18:29:01.334Z,88.06
2023-01-25T18:31:28.067Z,88.02
2023-01-25T18:33:54.677Z,88.07
2023-01-25T18:36:21.153Z,88.04
2023-01-25T18:38:47.846Z,88.25
2023-01-25T18:41:14.380Z,88.97
2023-01-25T18:43:40.913Z,88.66
2023-01-25T18:46:07.704Z,89.45
2023-01-25T18:48:34.625Z,90.03
2023-01-25T18:51:07.488Z,90.15
2023-01-25T18:53:36.557Z,90.25
2023-01-25T18:57:35.849Z,90.73
2023-01-25T19:00:03.835Z,90.46
2023-01-25T19:02:30.289Z,90.92
2023-01-25T19:04:56.961Z,90.92
2023-01-25T19:07:23.399Z,90.48
2023-01-25T19:09:49.906Z,90.42
2023-01-25T19:12:16.394Z,90.35
2023-01-25T19:14:42.826Z,89.96
2023-01-25T19:17:09.276Z,89.74
2023-01-25T19:19:36.172Z,89.75
2023-01-25T19:22:02.609Z,89.76
2023-01-25T19:24:29.214Z,89.83
2023-01-25T19:26:55.809Z,89.44
2023-01-25T19:29:22.317Z,89.17
2023-01-25T19:31:48.862Z,89.17
2023-01-25T19:34:15.288Z,89.46
2023-01-25T19:36:49.225Z,89.55
2023-01-25T19:39:16.910Z,89.57
2023-01-25T19:41:43.455Z,89.45
2023-01-25T19:44:12.443Z,89.31
2023-01-25T19:46:42.381Z,89.05
2023-01-25T19:49:11.670Z,89.13
2023-01-25T19:51:41.682Z,89.25
2023-01-25T19:54:16.907Z,89.28
2023-01-25T19:56:45.496Z,88.79
2023-01-25T19:59:17.709Z,88.59
2023-01-25T20:01:45.452Z,88.31
2023-01-25T20:04:14.676Z,88.48
2023-01-25T20:06:41.568Z,88.28
2023-01-25T20:09:08.232Z,88.04
2023-01-25T20:11:35.196Z,88.16
2023-01-25T20:14:04.386Z,88.00
2023-01-25T20:16:32.345Z,88.03
2023-01-25T20:18:59.483Z,87.63
2023-01-25T20:21:27.636Z,87.73
2023-01-25T20:23:58.414Z,87.62
2023-01-25T20:26:31.134Z,88.16
2023-01-25T20:29:01.793Z,87.71
2023-01-25T20:31:34.101Z,88.45
2023-01-25T20:34:03.714Z,88.96
2023-01-25T20:36:37.141Z,89.20
2023-01-25T20:39:04.982Z,89.21
2023-01-25T20:41:31.554Z,89.44
2023-01-25T20:44:04.415Z,89.33
2023-01-25T20:46:33.899Z,89.28
2023-01-25T20:49:01.717Z,89.19
2023-01-25T20:51:28.368Z,89.05
2023-01-25T20:53:55.184Z,89.09
2023-01-25T20:56:22.434Z,89.61
2023-01-25T20:58:50.722Z,89.30
2023-01-25T21:01:24.553Z,89.12
2023-01-25T21:03:54.300Z,89.01
2023-01-25T21:06:20.845Z,89.10
2023-01-25T21:08:47.362Z,89.04
2023-01-25T21:11:13.807Z,89.13
2023-01-25T21:13:40.749Z,89.01
2023-01-25T21:16:11.847Z,88.91
2023-01-25T21:18:40.862Z,87.99
2023-01-25T21:21:10.659Z,87.89
2023-01-25T21:23:39.643Z,88.09
2023-01-25T21:26:07.123Z,88.36
2023-01-25T21:28:34.859Z,88.45
2023-01-25T21:31:16.795Z,87.93
2023-01-25T21:33:43.901Z,88.30
2023-01-25T21:36:15.045Z,88.01
2023-01-25T21:38:43.543Z,87.69
2023-01-25T21:41:12.498Z,87.67
2023-01-25T21:43:57.855Z,88.16
2023-01-25T21:46:26.111Z,88.38
2023-01-25T21:49:14.901Z,88.49
2023-01-25T21:51:49.246Z,88.29
2023-01-25T21:54:24.060Z,87.55
2023-01-25T21:56:52.910Z,87.06
2023-01-25T21:59:20.170Z,87.46
2023-01-25T22:01:47.348Z,87.41
2023-01-25T22:04:15.959Z,87.08
2023-01-25T22:06:42.862Z,86.74
2023-01-25T22:09:10.818Z,86.84
2023-01-25T22:11:37.393Z,87.17
2023-01-25T22:14:04.105Z,87.24
2023-01-25T22:16:30.869Z,86.64
2023-01-25T22:19:00.596Z,86.29
2023-01-25T22:21:30.759Z,86.67
2023-01-25T22:24:00.265Z,86.86
2023-01-25T22:26:37.494Z,86.92
2023-01-25T22:29:05.952Z,85.46
2023-01-25T22:31:32.512Z,86.06
2023-01-25T22:33:59.816Z,86.35
2023-01-25T22:36:28.393Z,86.93
2023-01-25T22:38:55.052Z,87.17
2023-01-25T22:41:27.500Z,86.84
2023-01-25T22:43:54.847Z,87.80
2023-01-25T22:46:23.956Z,87.93
2023-01-25T22:48:50.536Z,88.19
2023-01-25T22:51:20.487Z,89.74
2023-01-25T22:53:47.103Z,89.36
2023-01-25T22:56:16.446Z,89.28
2023-01-25T22:58:44.706Z,89.01
2023-01-25T23:01:21.431Z,88.46
2023-01-25T23:03:49.161Z,87.83
2023-01-25T23:06:18.300Z,87.06
2023-01-25T23:08:45.293Z,87.45
2023-01-25T23:11:14.346Z,87.18
2023-01-25T23:13:41.972Z,87.28
2023-01-25T23:16:10.123Z,87.42
2023-01-25T23:18:52.237Z,87.76
2023-01-25T23:21:24.344Z,87.60
2023-01-25T23:23:51.421Z,87.54
2023-01-25T23:26:17.924Z,86.54
2023-01-25T23:28:50.742Z,86.98
2023-01-25T23:31:17.893Z,87.18
2023-01-25T23:33:46.074Z,86.98
2023-01-25T23:36:24.382Z,86.81
2023-01-25T23:38:51.750Z,86.96
2023-01-25T23:41:19.634Z,86.75
2023-01-25T23:43:46.625Z,86.99
2023-01-25T23:46:16.893Z,87.14
2023-01-25T23:48:44.198Z,87.24
2023-01-25T23:51:11.844Z,86.33
2023-01-25T23:53:39.260Z,86.96
2023-01-25T23:56:13.331Z,86.57
2023-01-25T23:58:40.661Z,86.47
